createdAt,value
2022-08-28T00:01:43.274Z,1.70
2022-08-28T00:06:46.835Z,2.22
2022-08-28T00:11:51.578Z,2.47
2022-08-28T00:16:55.131Z,2.10
2022-08-28T00:21:58.367Z,2.72
2022-08-28T00:27:20.265Z,2.35
2022-08-28T00:32:25.350Z,1.85
2022-08-28T00:37:28.741Z,2.10
2022-08-28T00:42:35.439Z,1.95
2022-08-28T00:47:39.305Z,2.33
2022-08-28T00:52:43.404Z,3.35
2022-08-28T00:57:50.743Z,1.83
2022-08-28T01:02:54.795Z,1.67
2022-08-28T01:07:59.906Z,2.28
2022-08-28T01:13:05.705Z,2.13
2022-08-28T01:18:11.934Z,1.67
2022-08-28T01:23:24.524Z,1.90
2022-08-28T01:28:29.205Z,2.00
2022-08-28T01:33:34.468Z,2.47
2022-08-28T01:38:38.813Z,2.10
2022-08-28T01:43:44.032Z,3.33
2022-08-28T01:48:47.676Z,1.95
2022-08-28T01:53:51.041Z,1.80
2022-08-28T01:58:55.613Z,1.58
2022-08-28T02:03:58.984Z,2.78
2022-08-28T02:09:02.325Z,2.05
2022-08-28T02:14:07.587Z,2.53
2022-08-28T02:19:12.296Z,1.67
2022-08-28T02:24:17.085Z,1.92
2022-08-28T02:29:22.110Z,1.77
2022-08-28T02:34:25.424Z,1.70
2022-08-28T02:39:28.998Z,1.60
2022-08-28T02:44:33.676Z,2.00
2022-08-28T02:49:37.240Z,2.28
2022-08-28T02:54:40.783Z,2.35
2022-08-28T02:59:46.506Z,1.90
2022-08-28T03:04:49.901Z,2.92
2022-08-28T03:09:54.976Z,1.45
2022-08-28T03:14:59.633Z,2.00
2022-08-28T03:20:03.397Z,1.75
2022-08-28T03:25:07.657Z,2.17
2022-08-28T03:30:13.327Z,2.20
2022-08-28T03:35:17.008Z,2.33
2022-08-28T03:40:21.961Z,2.97
2022-08-28T03:45:26.720Z,2.85
2022-08-28T03:50:30.305Z,3.28
2022-08-28T03:55:33.878Z,3.33
2022-08-28T04:00:39.937Z,2.30
2022-08-28T04:05:44.212Z,3.08
2022-08-28T04:10:48.539Z,3.40
2022-08-28T04:16:00.440Z,2.20
2022-08-28T04:21:08.688Z,3.28
2022-08-28T04:26:14.936Z,2.97
2022-08-28T04:31:31.700Z,2.90
2022-08-28T04:36:36.534Z,3.08
2022-08-28T04:41:40.258Z,2.58
2022-08-28T04:46:44.977Z,2.30
2022-08-28T04:51:51.784Z,2.25
2022-08-28T04:56:55.960Z,4.45
2022-08-28T05:02:00.665Z,3.80
2022-08-28T05:07:03.907Z,1.88
2022-08-28T05:12:07.704Z,1.98
2022-08-28T05:17:13.972Z,2.63
2022-08-28T05:22:17.206Z,2.80
2022-08-28T05:27:20.635Z,3.22
2022-08-28T05:32:25.264Z,4.50
2022-08-28T05:37:28.745Z,1.95
2022-08-28T05:42:34.863Z,2.72
2022-08-28T05:47:43.887Z,4.85
2022-08-28T05:52:47.541Z,4.03
2022-08-28T05:57:50.809Z,2.03
2022-08-28T06:02:55.969Z,2.78
2022-08-28T06:07:59.520Z,1.92
2022-08-28T06:13:03.131Z,2.05
2022-08-28T06:18:07.733Z,2.28
2022-08-28T06:23:12.421Z,2.05
2022-08-28T06:28:17.292Z,2.55
2022-08-28T06:33:24.852Z,2.47
2022-08-28T06:38:28.920Z,3.10
2022-08-28T06:43:32.240Z,4.43
2022-08-28T06:48:36.973Z,2.45
2022-08-28T06:53:41.898Z,2.20
2022-08-28T06:58:49.995Z,2.92
2022-08-28T07:03:59.253Z,4.88
2022-08-28T07:09:03.911Z,3.55
2022-08-28T07:14:08.039Z,2.08
2022-08-28T07:19:13.588Z,2.92
2022-08-28T07:24:17.887Z,2.45
2022-08-28T07:29:21.361Z,3.95
2022-08-28T07:34:26.358Z,3.67
2022-08-28T07:39:31.097Z,3.40
2022-08-28T07:44:54.683Z,3.35
2022-08-28T07:50:01.616Z,3.22
2022-08-28T07:55:06.380Z,3.40
2022-08-28T08:00:13.555Z,4.10
2022-08-28T08:05:18.332Z,3.17
2022-08-28T08:10:22.898Z,8.07
2022-08-28T08:15:30.699Z,4.60
2022-08-28T08:20:35.881Z,4.72
2022-08-28T08:25:39.135Z,4.88
2022-08-28T08:30:42.349Z,4.35
2022-08-28T08:35:46.993Z,5.43
2022-08-28T08:40:50.218Z,5.15
2022-08-28T08:45:53.895Z,4.95
2022-08-28T08:51:02.845Z,6.55
2022-08-28T08:56:07.222Z,5.70
2022-08-28T09:01:18.024Z,4.63
2022-08-28T09:06:30.537Z,5.03
2022-08-28T09:11:52.177Z,5.60
2022-08-28T09:17:01.957Z,3.90
2022-08-28T09:22:06.696Z,3.55
2022-08-28T09:27:23.525Z,4.22
2022-08-28T09:32:33.101Z,2.45
2022-08-28T09:37:38.928Z,2.30
2022-08-28T09:42:59.781Z,3.67
2022-08-28T09:48:03.855Z,2.72
2022-08-28T09:53:22.088Z,4.95
2022-08-28T09:58:33.376Z,1.90
2022-08-28T10:03:43.004Z,2.20
2022-08-28T10:09:03.420Z,1.83
2022-08-28T10:14:25.014Z,2.40
2022-08-28T10:19:40.152Z,1.48
2022-08-28T10:25:03.649Z,1.15
2022-08-28T10:30:13.297Z,0.90
2022-08-28T10:35:22.445Z,0.88
2022-08-28T10:40:30.658Z,0.95
2022-08-28T10:45:35.871Z,0.82
2022-08-28T10:50:45.350Z,0.93
2022-08-28T10:55:56.518Z,1.80
2022-08-28T11:01:03.547Z,1.75
2022-08-28T11:06:14.233Z,1.20
2022-08-28T11:11:44.163Z,1.42
2022-08-28T11:16:50.204Z,1.70
2022-08-28T11:22:01.822Z,1.40
2022-08-28T11:27:24.136Z,1.67
2022-08-28T11:32:46.931Z,1.48
2022-08-28T11:37:53.621Z,1.92
2022-08-28T11:43:37.924Z,2.22
2022-08-28T11:48:51.199Z,1.73
2022-08-28T11:54:04.524Z,2.88
2022-08-28T11:59:35.685Z,2.70
2022-08-28T12:04:43.922Z,1.90
2022-08-28T12:09:48.806Z,2.08
2022-08-28T12:15:07.952Z,2.60
2022-08-28T12:20:17.731Z,1.98
2022-08-28T12:25:29.434Z,3.15
2022-08-28T12:30:43.501Z,1.98
2022-08-28T12:35:46.948Z,2.53
2022-08-28T12:40:53.384Z,1.98
2022-08-28T12:46:00.668Z,1.80
2022-08-28T12:51:06.869Z,1.98
2022-08-28T12:56:12.114Z,2.35
2022-08-28T13:01:28.353Z,2.10
2022-08-28T13:06:33.730Z,2.22
2022-08-28T13:11:40.234Z,2.13
2022-08-28T13:16:46.710Z,2.30
2022-08-28T13:21:58.938Z,2.70
2022-08-28T13:27:06.728Z,2.95
2022-08-28T13:32:18.153Z,1.75
2022-08-28T13:37:44.215Z,2.13
2022-08-28T13:42:47.527Z,1.80
2022-08-28T13:47:52.612Z,2.38
2022-08-28T13:52:56.500Z,2.22
2022-08-28T13:57:59.979Z,3.92
2022-08-28T14:03:22.193Z,1.85
2022-08-28T14:08:25.578Z,4.15
2022-08-28T14:13:28.835Z,1.85
2022-08-28T14:18:33.492Z,2.08
2022-08-28T14:23:36.724Z,2.08
2022-08-28T14:28:40.063Z,2.40
2022-08-28T14:33:45.163Z,2.50
2022-08-28T14:38:52.774Z,2.58
2022-08-28T14:43:59.602Z,2.42
2022-08-28T14:49:07.225Z,2.20
2022-08-28T14:54:12.238Z,2.25
2022-08-28T14:59:23.623Z,1.63
2022-08-28T15:04:34.473Z,3.33
2022-08-28T15:09:40.428Z,2.60
2022-08-28T15:14:51.377Z,2.47
2022-08-28T15:20:01.814Z,2.78
2022-08-28T15:25:07.538Z,3.25
2022-08-28T15:30:12.195Z,3.15
2022-08-28T15:35:17.309Z,3.03
2022-08-28T15:40:38.668Z,3.20
2022-08-28T15:45:43.688Z,2.85
2022-08-28T15:50:49.357Z,3.10
2022-08-28T15:55:55.967Z,2.75
2022-08-28T16:01:02.556Z,3.85
2022-08-28T16:06:13.196Z,3.55
2022-08-28T16:11:18.330Z,5.20
2022-08-28T16:16:21.991Z,2.60
2022-08-28T16:21:28.235Z,3.25
2022-08-28T16:26:32.036Z,1.77
2022-08-28T16:31:35.748Z,1.85
2022-08-28T16:36:40.406Z,2.08
2022-08-28T16:41:49.685Z,1.88
2022-08-28T16:46:53.638Z,2.00
2022-08-28T16:51:58.378Z,1.40
2022-08-28T16:57:02.866Z,2.78
2022-08-28T17:02:09.072Z,1.75
2022-08-28T17:07:18.993Z,1.58
2022-08-28T17:12:25.674Z,1.40
2022-08-28T17:17:29.444Z,1.77
2022-08-28T17:22:35.422Z,1.38
2022-08-28T17:27:38.828Z,1.08
2022-08-28T17:32:42.793Z,1.55
2022-08-28T17:37:50.981Z,1.10
2022-08-28T17:42:54.718Z,1.20
2022-08-28T17:47:59.137Z,1.20
2022-08-28T17:53:04.375Z,1.35
2022-08-28T17:58:08.917Z,1.20
2022-08-28T18:03:12.566Z,1.38
2022-08-28T18:08:17.731Z,1.75
2022-08-28T18:13:21.282Z,1.48
2022-08-28T18:18:26.955Z,1.40
2022-08-28T18:23:40.620Z,1.45
2022-08-28T18:28:44.833Z,1.58
2022-08-28T18:33:48.692Z,1.85
2022-08-28T18:38:54.014Z,1.50
2022-08-28T18:43:57.951Z,1.30
2022-08-28T18:49:08.367Z,1.52
2022-08-28T18:54:15.978Z,1.50
2022-08-28T18:59:20.646Z,1.40
2022-08-28T19:04:25.389Z,2.20
2022-08-28T19:09:34.896Z,1.55
2022-08-28T19:14:38.897Z,1.55
2022-08-28T19:19:42.760Z,1.88
2022-08-28T19:24:47.791Z,2.70
2022-08-28T19:29:51.509Z,1.73
2022-08-28T19:34:57.887Z,1.30
2022-08-28T19:40:03.477Z,1.45
2022-08-28T19:45:09.596Z,1.73
2022-08-28T19:50:15.361Z,1.58
2022-08-28T19:55:22.908Z,3.38
2022-08-28T20:00:29.456Z,1.50
2022-08-28T20:05:33.265Z,1.30
2022-08-28T20:10:40.310Z,1.45
2022-08-28T20:15:46.049Z,1.80
2022-08-28T20:20:50.939Z,1.73
2022-08-28T20:25:55.868Z,1.60
2022-08-28T20:31:01.435Z,2.85
2022-08-28T20:36:07.553Z,2.05
2022-08-28T20:41:22.849Z,1.77
2022-08-28T20:46:26.389Z,2.15
2022-08-28T20:51:43.978Z,2.58
2022-08-28T20:56:49.498Z,2.25
2022-08-28T21:01:53.079Z,1.55
2022-08-28T21:06:56.423Z,2.03
2022-08-28T21:12:01.033Z,2.25
2022-08-28T21:17:05.135Z,1.85
2022-08-28T21:22:09.179Z,2.17
2022-08-28T21:27:13.808Z,1.77
2022-08-28T21:32:17.742Z,2.13
2022-08-28T21:37:21.070Z,2.72
2022-08-28T21:42:25.985Z,5.38
2022-08-28T21:47:31.446Z,2.25
2022-08-28T21:52:35.667Z,2.38
2022-08-28T21:57:41.526Z,2.60
2022-08-28T22:02:45.097Z,1.70
2022-08-28T22:07:48.750Z,2.10
2022-08-28T22:12:53.721Z,2.50
2022-08-28T22:17:58.214Z,2.22
2022-08-28T22:23:13.557Z,1.80
2022-08-28T22:28:18.492Z,2.38
2022-08-28T22:33:21.751Z,2.08
2022-08-28T22:38:27.015Z,3.03
2022-08-28T22:43:31.779Z,3.63
2022-08-28T22:48:38.411Z,3.47
2022-08-28T22:53:44.604Z,2.55
2022-08-28T22:58:49.413Z,3.13
2022-08-28T23:03:53.323Z,2.10
2022-08-28T23:08:57.158Z,2.40
2022-08-28T23:14:02.756Z,2.72
2022-08-28T23:19:09.170Z,3.97
2022-08-28T23:24:13.693Z,2.42
2022-08-28T23:29:18.446Z,2.50
2022-08-28T23:34:21.917Z,2.53
2022-08-28T23:39:25.581Z,3.17
2022-08-28T23:44:32.458Z,2.72
2022-08-28T23:49:42.719Z,2.42
2022-08-28T23:54:46.285Z,4.82
2022-08-28T23:59:51.681Z,2.17
